createdAt,value
2018-01-28T00:01:45.642Z,22.60
2018-01-28T00:04:13.204Z,22.60
2018-01-28T00:06:40.822Z,22.60
2018-01-28T00:09:08.374Z,22.60
2018-01-28T00:11:35.944Z,22.60
2018-01-28T00:14:03.564Z,22.60
2018-01-28T00:16:31.106Z,22.60
2018-01-28T00:18:58.677Z,22.60
2018-01-28T00:21:26.302Z,22.60
2018-01-28T00:23:53.864Z,22.50
2018-01-28T00:26:21.429Z,22.50
2018-01-28T00:28:49.014Z,22.50
2018-01-28T00:31:16.590Z,22.50
2018-01-28T00:33:44.923Z,22.50
2018-01-28T00:36:12.538Z,22.50
2018-01-28T00:38:40.901Z,22.50
2018-01-28T00:41:09.328Z,22.50
2018-01-28T00:43:36.932Z,22.50
2018-01-28T00:46:04.501Z,22.50
2018-01-28T00:48:32.822Z,22.50
2018-01-28T00:51:00.444Z,22.50
2018-01-28T00:53:28.770Z,22.40
2018-01-28T00:55:56.382Z,22.40
2018-01-28T00:58:24.946Z,22.50
2018-01-28T01:00:52.514Z,22.40
2018-01-28T01:03:20.076Z,22.50
2018-01-28T01:05:47.770Z,22.50
2018-01-28T01:08:15.310Z,22.40
2018-01-28T01:10:43.642Z,22.50
2018-01-28T01:13:11.424Z,22.50
2018-01-28T01:15:38.998Z,22.40
2018-01-28T01:18:06.542Z,22.40
2018-01-28T01:20:34.134Z,22.50
2018-01-28T01:23:02.516Z,22.40
2018-01-28T01:25:31.042Z,22.50
2018-01-28T01:27:58.669Z,22.40
2018-01-28T01:30:26.257Z,22.50
2018-01-28T01:32:53.834Z,22.50
2018-01-28T01:35:21.428Z,22.50
2018-01-28T01:37:49.760Z,22.50
2018-01-28T01:40:17.517Z,22.40
2018-01-28T01:42:45.124Z,22.40
2018-01-28T01:45:12.666Z,22.50
2018-01-28T01:47:40.204Z,22.40
2018-01-28T01:50:07.794Z,22.40
2018-01-28T01:52:35.340Z,22.40
2018-01-28T01:55:02.904Z,22.40
2018-01-28T01:57:30.493Z,22.40
2018-01-28T01:59:58.804Z,22.40
2018-01-28T02:02:26.378Z,22.40
2018-01-28T02:04:54.157Z,22.40
2018-01-28T02:07:21.727Z,22.40
2018-01-28T02:09:49.346Z,22.40
2018-01-28T02:12:16.957Z,22.40
2018-01-28T02:14:44.517Z,22.40
2018-01-28T02:17:12.201Z,22.40
2018-01-28T02:19:40.587Z,22.40
2018-01-28T02:22:08.120Z,22.40
2018-01-28T02:24:35.703Z,22.40
2018-01-28T02:27:04.040Z,22.40
2018-01-28T02:29:31.559Z,22.30
2018-01-28T02:31:59.145Z,22.40
2018-01-28T02:34:26.741Z,22.40
2018-01-28T02:36:55.115Z,22.40
2018-01-28T02:39:22.647Z,22.40
2018-01-28T02:41:50.252Z,22.40
2018-01-28T02:44:18.608Z,22.40
2018-01-28T02:46:46.927Z,22.40
2018-01-28T02:49:14.565Z,22.30
2018-01-28T02:51:42.879Z,22.30
2018-01-28T02:54:10.449Z,22.30
2018-01-28T02:56:38.043Z,22.30
2018-01-28T02:59:05.609Z,22.30
2018-01-28T03:01:33.959Z,22.30
2018-01-28T03:04:01.561Z,22.40
2018-01-28T03:06:30.035Z,22.40
2018-01-28T03:08:58.344Z,22.40
2018-01-28T03:11:25.981Z,22.40
2018-01-28T03:13:54.473Z,22.40
2018-01-28T03:16:22.013Z,22.30
2018-01-28T03:18:49.629Z,22.30
2018-01-28T03:21:17.185Z,22.40
2018-01-28T03:23:44.767Z,22.30
2018-01-28T03:26:12.489Z,22.30
2018-01-28T03:28:40.047Z,22.30
2018-01-28T03:31:07.630Z,22.30
2018-01-28T03:33:35.313Z,22.30
2018-01-28T03:36:02.865Z,22.30
2018-01-28T03:38:30.431Z,22.30
2018-01-28T03:40:59.525Z,22.30
2018-01-28T03:43:27.091Z,22.30
2018-01-28T03:45:54.633Z,22.30
2018-01-28T03:48:22.318Z,22.30
2018-01-28T03:50:49.877Z,22.30
2018-01-28T03:53:17.459Z,22.30
2018-01-28T03:55:45.401Z,22.30
2018-01-28T03:58:14.608Z,22.20
2018-01-28T04:00:42.157Z,22.20
2018-01-28T04:03:09.829Z,22.20
2018-01-28T04:05:37.393Z,22.30
2018-01-28T04:08:04.945Z,22.30
2018-01-28T04:10:32.539Z,22.30
2018-01-28T04:13:00.327Z,22.30
2018-01-28T04:15:27.881Z,22.30
2018-01-28T04:17:55.675Z,22.30
2018-01-28T04:20:23.217Z,22.30
2018-01-28T04:22:50.771Z,22.30
2018-01-28T04:25:18.373Z,22.30
2018-01-28T04:27:45.925Z,22.30
2018-01-28T04:30:14.977Z,22.30
2018-01-28T04:32:42.623Z,22.30
2018-01-28T04:35:10.178Z,22.30
2018-01-28T04:37:37.761Z,22.20
2018-01-28T04:40:05.548Z,22.30
2018-01-28T04:42:33.089Z,22.30
2018-01-28T04:45:02.277Z,22.30
2018-01-28T04:47:30.153Z,22.30
2018-01-28T04:49:57.757Z,22.30
2018-01-28T04:52:25.293Z,22.30
2018-01-28T04:54:52.873Z,22.30
2018-01-28T04:57:20.467Z,22.30
2018-01-28T04:59:48.029Z,22.30
2018-01-28T05:02:16.451Z,22.20
2018-01-28T05:04:44.061Z,22.20
2018-01-28T05:07:12.386Z,22.30
2018-01-28T05:09:39.925Z,22.30
2018-01-28T05:12:07.562Z,22.30
2018-01-28T05:14:35.061Z,22.30
2018-01-28T05:17:02.621Z,22.30
2018-01-28T05:19:30.226Z,22.20
2018-01-28T05:21:58.539Z,22.20
2018-01-28T05:24:26.079Z,22.20
2018-01-28T05:26:53.715Z,22.20
2018-01-28T05:29:22.024Z,22.20
2018-01-28T05:31:49.624Z,22.20
2018-01-28T05:34:17.224Z,22.30
2018-01-28T05:36:45.570Z,22.20
2018-01-28T05:39:13.200Z,22.20
2018-01-28T05:41:40.808Z,22.30
2018-01-28T05:44:08.339Z,22.20
2018-01-28T05:46:35.932Z,22.20
2018-01-28T05:49:03.522Z,22.20
2018-01-28T05:51:31.069Z,22.20
2018-01-28T05:53:59.400Z,22.20
2018-01-28T05:56:27.275Z,22.20
2018-01-28T05:58:54.882Z,22.20
2018-01-28T06:01:22.552Z,22.20
2018-01-28T06:03:50.161Z,22.20
2018-01-28T06:06:17.713Z,22.20
2018-01-28T06:08:45.410Z,22.20
2018-01-28T06:11:13.769Z,22.20
2018-01-28T06:13:41.313Z,22.20
2018-01-28T06:16:08.854Z,22.20
2018-01-28T06:18:36.450Z,22.20
2018-01-28T06:21:03.990Z,22.20
2018-01-28T06:23:31.550Z,22.20
2018-01-28T06:25:59.196Z,22.20
2018-01-28T06:28:26.735Z,22.20
2018-01-28T06:30:54.389Z,22.20
2018-01-28T06:33:22.026Z,22.20
2018-01-28T06:35:50.366Z,22.20
2018-01-28T06:38:17.942Z,22.20
2018-01-28T06:40:45.553Z,22.20
2018-01-28T06:43:13.102Z,22.20
2018-01-28T06:45:40.656Z,22.20
2018-01-28T06:48:08.248Z,22.20
2018-01-28T06:50:35.810Z,22.20
2018-01-28T06:53:04.192Z,22.20
2018-01-28T06:55:31.794Z,22.10
2018-01-28T06:57:59.351Z,22.20
2018-01-28T07:00:26.886Z,22.20
2018-01-28T07:02:54.519Z,22.20
2018-01-28T07:05:22.050Z,22.20
2018-01-28T07:07:49.600Z,22.20
2018-01-28T07:10:17.960Z,22.10
2018-01-28T07:12:46.293Z,22.20
2018-01-28T07:15:13.860Z,22.10
2018-01-28T07:17:41.620Z,22.30
2018-01-28T07:20:09.222Z,22.40
2018-01-28T07:22:37.533Z,22.50
2018-01-28T07:25:05.127Z,22.50
2018-01-28T07:27:32.800Z,22.60
2018-01-28T07:30:00.344Z,22.70
2018-01-28T07:32:27.962Z,22.80
2018-01-28T07:34:55.510Z,22.90
2018-01-28T07:37:23.944Z,23.10
2018-01-28T07:39:51.523Z,23.00
2018-01-28T07:42:19.224Z,23.10
2018-01-28T07:44:47.574Z,23.10
2018-01-28T07:47:15.176Z,23.00
2018-01-28T07:49:42.728Z,23.10
2018-01-28T07:52:11.137Z,23.10
2018-01-28T07:54:38.712Z,23.10
2018-01-28T07:57:06.315Z,23.10
2018-01-28T07:59:34.693Z,23.10
2018-01-28T08:02:02.225Z,23.00
2018-01-28T08:04:29.846Z,23.10
2018-01-28T08:06:57.460Z,23.10
2018-01-28T08:09:25.018Z,23.10
2018-01-28T08:12:07.592Z,23.10
2018-01-28T08:14:38.396Z,23.10
2018-01-28T08:17:06.143Z,23.10
2018-01-28T08:19:34.743Z,23.10
2018-01-28T08:22:03.136Z,23.10
2018-01-28T08:24:30.719Z,23.10
2018-01-28T08:26:59.034Z,23.10
2018-01-28T08:29:28.587Z,23.10
2018-01-28T08:31:56.297Z,23.10
2018-01-28T08:34:23.905Z,23.10
2018-01-28T08:36:51.511Z,23.00
2018-01-28T08:39:19.078Z,23.10
2018-01-28T08:41:46.619Z,23.10
2018-01-28T08:44:14.263Z,23.00
2018-01-28T08:46:41.932Z,23.00
2018-01-28T08:49:09.436Z,23.00
2018-01-28T08:51:37.867Z,23.00
2018-01-28T08:54:06.387Z,23.00
2018-01-28T08:56:34.134Z,23.00
2018-01-28T08:59:02.101Z,23.00
2018-01-28T09:01:29.931Z,23.00
2018-01-28T09:03:57.499Z,23.00
2018-01-28T09:06:25.119Z,23.00
2018-01-28T09:08:54.585Z,23.00
2018-01-28T09:11:22.826Z,23.00
2018-01-28T09:13:50.613Z,22.90
2018-01-28T09:16:18.203Z,22.90
2018-01-28T09:18:45.767Z,23.00
2018-01-28T09:21:13.341Z,22.90
2018-01-28T09:23:41.669Z,22.90
2018-01-28T09:26:09.247Z,22.90
2018-01-28T09:28:36.865Z,22.90
2018-01-28T09:31:04.599Z,22.90
2018-01-28T09:33:32.259Z,22.90
2018-01-28T09:36:00.668Z,22.90
2018-01-28T09:38:28.215Z,22.90
2018-01-28T09:40:56.776Z,22.80
2018-01-28T09:43:24.403Z,22.80
2018-01-28T09:45:51.977Z,22.80
2018-01-28T09:48:19.561Z,22.80
2018-01-28T09:50:47.999Z,22.80
2018-01-28T09:53:15.603Z,22.80
2018-01-28T09:55:43.309Z,22.80
2018-01-28T09:58:11.039Z,22.80
2018-01-28T10:00:39.373Z,22.90
2018-01-28T10:03:06.950Z,22.90
2018-01-28T10:05:34.605Z,23.00
2018-01-28T10:08:02.150Z,23.10
2018-01-28T10:10:29.785Z,23.10
2018-01-28T10:12:57.375Z,23.10
2018-01-28T10:15:25.051Z,23.00
2018-01-28T10:17:52.597Z,23.10
2018-01-28T10:20:20.139Z,23.10
2018-01-28T10:22:47.736Z,23.10
2018-01-28T10:25:16.848Z,23.00
2018-01-28T10:27:45.258Z,23.00
2018-01-28T10:30:12.840Z,23.00
2018-01-28T10:32:40.434Z,23.00
2018-01-28T10:35:08.052Z,23.00
2018-01-28T10:37:35.761Z,23.00
2018-01-28T10:40:03.385Z,22.90
2018-01-28T10:42:31.024Z,22.90
2018-01-28T10:44:58.738Z,22.90
2018-01-28T10:47:26.336Z,22.90
2018-01-28T10:49:53.876Z,22.80
2018-01-28T10:52:22.190Z,22.70
2018-01-28T10:54:49.786Z,22.70
2018-01-28T10:57:17.377Z,22.70
2018-01-28T10:59:46.644Z,22.70
2018-01-28T11:02:14.195Z,22.60
2018-01-28T11:04:41.799Z,22.60
2018-01-28T11:07:10.354Z,22.60
2018-01-28T11:09:37.930Z,22.60
2018-01-28T11:12:05.494Z,22.60
2018-01-28T11:14:33.866Z,22.50
2018-01-28T11:17:01.406Z,22.50
2018-01-28T11:19:28.982Z,22.50
2018-01-28T11:21:56.580Z,22.60
2018-01-28T11:24:24.138Z,22.60
2018-01-28T11:26:51.696Z,22.60
2018-01-28T11:29:19.468Z,22.60
2018-01-28T11:31:47.143Z,22.60
2018-01-28T11:34:14.794Z,22.60
2018-01-28T11:36:42.337Z,22.60
2018-01-28T11:39:09.889Z,22.60
2018-01-28T11:41:38.282Z,22.60
2018-01-28T11:44:05.847Z,22.60
2018-01-28T11:46:34.950Z,22.60
2018-01-28T11:49:02.572Z,22.60
2018-01-28T11:51:30.148Z,22.70
2018-01-28T11:53:58.714Z,22.70
2018-01-28T11:56:27.176Z,22.70
2018-01-28T11:58:54.747Z,22.70
2018-01-28T12:01:22.312Z,22.70
2018-01-28T12:03:50.677Z,22.70
2018-01-28T12:06:18.254Z,22.70
2018-01-28T12:08:46.570Z,22.60
2018-01-28T12:11:14.178Z,22.60
2018-01-28T12:13:41.848Z,22.60
2018-01-28T12:16:10.170Z,22.60
2018-01-28T12:18:37.782Z,22.60
2018-01-28T12:21:05.314Z,22.60
2018-01-28T12:23:32.868Z,22.60
2018-01-28T12:26:00.488Z,22.60
2018-01-28T12:28:28.032Z,22.60
2018-01-28T12:30:56.356Z,22.60
2018-01-28T12:33:24.007Z,22.60
2018-01-28T12:35:51.572Z,22.60
2018-01-28T12:38:19.132Z,22.60
2018-01-28T12:40:46.830Z,22.60
2018-01-28T12:43:14.338Z,22.60
2018-01-28T12:45:41.892Z,22.60
2018-01-28T12:48:09.581Z,22.60
2018-01-28T12:50:37.152Z,22.60
2018-01-28T12:53:04.728Z,22.60
2018-01-28T12:55:32.316Z,22.50
2018-01-28T12:58:02.934Z,22.50
2018-01-28T13:00:30.532Z,22.50
2018-01-28T13:02:58.078Z,22.50
2018-01-28T13:05:25.714Z,22.50
2018-01-28T13:07:53.354Z,22.50
2018-01-28T13:10:20.912Z,22.50
2018-01-28T13:12:48.476Z,22.50
2018-01-28T13:15:16.262Z,22.50
2018-01-28T13:17:43.856Z,22.50
2018-01-28T13:20:11.639Z,22.50
2018-01-28T13:22:39.265Z,22.50
2018-01-28T13:25:07.592Z,22.50
2018-01-28T13:27:35.194Z,22.50
2018-01-28T13:30:03.550Z,22.50
2018-01-28T13:32:32.608Z,22.50
2018-01-28T13:35:00.366Z,22.50
2018-01-28T13:37:27.945Z,22.50
2018-01-28T13:39:55.537Z,22.50
2018-01-28T13:42:23.314Z,22.50
2018-01-28T13:44:51.641Z,22.50
2018-01-28T13:47:19.246Z,22.50
2018-01-28T13:49:47.571Z,22.50
2018-01-28T13:52:15.128Z,22.50
2018-01-28T13:54:42.720Z,22.50
2018-01-28T13:57:10.552Z,22.60
2018-01-28T13:59:38.208Z,22.50
2018-01-28T14:02:05.841Z,22.50
2018-01-28T14:04:34.142Z,22.50
2018-01-28T14:07:01.789Z,22.50
2018-01-28T14:09:30.279Z,22.50
2018-01-28T14:11:57.820Z,22.50
2018-01-28T14:14:26.228Z,22.50
2018-01-28T14:16:53.834Z,22.50
2018-01-28T14:19:21.440Z,22.50
2018-01-28T14:21:49.047Z,22.50
2018-01-28T14:24:16.633Z,22.50
2018-01-28T14:26:44.298Z,22.50
2018-01-28T14:29:12.669Z,22.50
2018-01-28T14:31:40.214Z,22.50
2018-01-28T14:34:07.837Z,22.50
2018-01-28T14:36:35.389Z,22.50
2018-01-28T14:39:03.057Z,22.40
2018-01-28T14:41:30.671Z,22.40
2018-01-28T14:43:58.271Z,22.40
2018-01-28T14:46:26.081Z,22.40
2018-01-28T14:48:53.805Z,22.30
2018-01-28T14:51:21.401Z,22.40
2018-01-28T14:53:48.971Z,22.30
2018-01-28T14:56:16.539Z,22.30
2018-01-28T14:58:45.015Z,22.30
2018-01-28T15:01:13.366Z,22.30
2018-01-28T15:03:40.943Z,22.30
2018-01-28T15:06:08.576Z,22.30
2018-01-28T15:08:36.252Z,22.30
2018-01-28T15:11:03.816Z,22.30
2018-01-28T15:13:31.427Z,22.30
2018-01-28T15:15:59.009Z,22.20
2018-01-28T15:18:26.585Z,22.20
2018-01-28T15:20:54.185Z,22.30
2018-01-28T15:23:24.459Z,22.20
2018-01-28T15:25:52.221Z,22.20
2018-01-28T15:28:20.749Z,22.20
2018-01-28T15:30:48.305Z,22.20
2018-01-28T15:33:16.015Z,22.20
2018-01-28T15:35:44.867Z,22.20
2018-01-28T15:38:13.230Z,22.20
2018-01-28T15:40:40.833Z,22.20
2018-01-28T15:43:08.409Z,22.20
2018-01-28T15:45:35.971Z,22.20
2018-01-28T15:48:03.561Z,22.20
2018-01-28T15:50:31.135Z,22.40
2018-01-28T15:52:58.729Z,22.40
2018-01-28T15:55:26.338Z,22.50
2018-01-28T15:57:53.940Z,22.60
2018-01-28T16:00:22.485Z,22.60
2018-01-28T16:02:50.157Z,22.60
2018-01-28T16:05:17.767Z,22.60
2018-01-28T16:07:45.455Z,22.70
2018-01-28T16:10:13.058Z,22.70
2018-01-28T16:12:41.423Z,22.80
2018-01-28T16:15:09.102Z,22.80
2018-01-28T16:17:37.478Z,22.80
2018-01-28T16:20:05.822Z,22.80
2018-01-28T16:22:33.401Z,22.80
2018-01-28T16:25:01.763Z,22.80
2018-01-28T16:27:29.343Z,22.80
2018-01-28T16:29:57.715Z,22.80
2018-01-28T16:32:26.053Z,22.80
2018-01-28T16:34:53.659Z,22.80
2018-01-28T16:37:21.280Z,23.00
2018-01-28T16:39:48.878Z,23.00
2018-01-28T16:42:17.265Z,23.20
2018-01-28T16:44:45.914Z,23.40
2018-01-28T16:47:13.482Z,23.40
2018-01-28T16:49:41.150Z,23.40
2018-01-28T16:52:10.331Z,23.50
2018-01-28T16:54:37.992Z,23.40
2018-01-28T16:57:05.606Z,23.40
2018-01-28T16:59:33.937Z,23.50
2018-01-28T17:02:01.607Z,23.50
2018-01-28T17:04:29.806Z,23.60
2018-01-28T17:06:58.186Z,23.50
2018-01-28T17:09:26.576Z,23.50
2018-01-28T17:11:54.974Z,23.40
2018-01-28T17:14:22.551Z,23.40
2018-01-28T17:16:50.156Z,23.30
2018-01-28T17:19:17.723Z,23.30
2018-01-28T17:21:46.335Z,23.20
2018-01-28T17:24:13.977Z,23.30
2018-01-28T17:26:42.316Z,23.20
2018-01-28T17:29:09.930Z,23.20
2018-01-28T17:31:37.600Z,23.20
2018-01-28T17:34:05.195Z,23.20
2018-01-28T17:36:32.766Z,23.10
2018-01-28T17:39:01.716Z,23.10
2018-01-28T17:41:29.330Z,23.10
2018-01-28T17:43:56.968Z,23.10
2018-01-28T17:46:24.583Z,23.10
2018-01-28T17:48:52.227Z,23.10
2018-01-28T17:51:20.638Z,23.00
2018-01-28T17:53:48.244Z,23.00
2018-01-28T17:56:16.734Z,23.10
2018-01-28T17:58:44.443Z,23.00
2018-01-28T18:01:12.008Z,23.10
2018-01-28T18:03:39.631Z,23.10
2018-01-28T18:06:08.150Z,23.00
2018-01-28T18:08:35.760Z,23.00
2018-01-28T18:11:03.408Z,23.10
2018-01-28T18:13:30.986Z,23.10
2018-01-28T18:15:58.574Z,23.00
2018-01-28T18:18:26.237Z,23.10
2018-01-28T18:20:53.818Z,23.10
2018-01-28T18:23:21.415Z,23.10
2018-01-28T18:25:49.061Z,23.10
2018-01-28T18:28:16.762Z,23.10
2018-01-28T18:30:45.149Z,23.10
2018-01-28T18:33:13.593Z,23.10
2018-01-28T18:35:41.206Z,23.10
2018-01-28T18:38:08.776Z,23.10
2018-01-28T18:40:36.516Z,23.10
2018-01-28T18:43:04.189Z,23.10
2018-01-28T18:45:31.796Z,23.10
2018-01-28T18:47:59.430Z,23.20
2018-01-28T18:50:27.024Z,23.10
2018-01-28T18:52:54.782Z,23.10
2018-01-28T18:55:22.509Z,23.10
2018-01-28T18:57:50.136Z,23.10
2018-01-28T19:00:18.550Z,23.00
2018-01-28T19:02:46.334Z,23.00
2018-01-28T19:05:13.954Z,23.00
2018-01-28T19:07:41.576Z,22.90
2018-01-28T19:10:09.195Z,23.00
2018-01-28T19:12:36.875Z,23.00
2018-01-28T19:15:05.368Z,22.90
2018-01-28T19:17:32.977Z,22.90
2018-01-28T19:20:01.397Z,22.90
2018-01-28T19:22:29.819Z,22.90
2018-01-28T19:24:57.446Z,22.90
2018-01-28T19:27:25.141Z,22.90
2018-01-28T19:29:52.734Z,22.90
2018-01-28T19:32:20.610Z,22.90
2018-01-28T19:34:48.216Z,22.90
2018-01-28T19:37:15.878Z,22.90
2018-01-28T19:39:43.529Z,22.80
2018-01-28T19:42:11.158Z,22.80
2018-01-28T19:44:38.763Z,22.80
2018-01-28T19:47:07.181Z,22.80
2018-01-28T19:49:34.825Z,22.80
2018-01-28T19:52:03.322Z,22.80
2018-01-28T19:54:31.575Z,22.80
2018-01-28T19:57:00.696Z,22.80
2018-01-28T19:59:28.315Z,22.80
2018-01-28T20:01:56.109Z,22.90
2018-01-28T20:04:24.583Z,22.90
2018-01-28T20:06:53.631Z,22.90
2018-01-28T20:09:21.302Z,22.90
2018-01-28T20:11:48.908Z,22.90
2018-01-28T20:14:17.279Z,22.90
2018-01-28T20:16:45.731Z,22.90
2018-01-28T20:19:13.419Z,22.80
2018-01-28T20:21:42.480Z,22.80
2018-01-28T20:24:10.657Z,22.80
2018-01-28T20:26:39.195Z,22.80
2018-01-28T20:29:07.697Z,22.90
2018-01-28T20:31:35.367Z,22.80
2018-01-28T20:34:02.973Z,22.80
2018-01-28T20:36:31.367Z,22.80
2018-01-28T20:38:59.119Z,22.80
2018-01-28T20:41:27.526Z,22.80
2018-01-28T20:43:55.273Z,22.80
2018-01-28T20:46:23.876Z,22.80
2018-01-28T20:48:51.457Z,22.80
2018-01-28T20:51:19.090Z,22.80
2018-01-28T20:53:47.441Z,22.80
2018-01-28T20:56:15.852Z,22.80
2018-01-28T20:58:43.573Z,22.70
2018-01-28T21:01:11.192Z,22.80
2018-01-28T21:03:38.800Z,22.80
2018-01-28T21:06:06.490Z,22.70
2018-01-28T21:08:34.828Z,22.70
2018-01-28T21:11:02.713Z,22.70
2018-01-28T21:13:30.392Z,22.70
2018-01-28T21:15:58.490Z,22.70
2018-01-28T21:18:26.074Z,22.70
2018-01-28T21:20:54.099Z,22.70
2018-01-28T21:23:21.716Z,22.70
2018-01-28T21:25:49.548Z,22.70
2018-01-28T21:28:17.361Z,22.70
2018-01-28T21:30:45.147Z,22.70
2018-01-28T21:33:13.568Z,22.70
2018-01-28T21:35:41.231Z,22.70
2018-01-28T21:38:08.853Z,22.70
2018-01-28T21:40:37.286Z,22.70
2018-01-28T21:43:04.895Z,22.70
2018-01-28T21:45:33.291Z,22.70
2018-01-28T21:48:00.856Z,22.70
2018-01-28T21:50:28.449Z,22.70
2018-01-28T21:52:56.058Z,22.80
2018-01-28T21:55:24.391Z,22.80
2018-01-28T21:57:52.010Z,22.80
2018-01-28T22:00:19.561Z,22.80
2018-01-28T22:02:48.100Z,22.80
2018-01-28T22:05:16.233Z,22.80
2018-01-28T22:07:43.804Z,22.80
2018-01-28T22:10:11.365Z,22.80
2018-01-28T22:12:38.970Z,22.80
2018-01-28T22:15:07.311Z,22.70
2018-01-28T22:17:34.868Z,22.80
2018-01-28T22:20:02.613Z,22.80
2018-01-28T22:22:30.188Z,22.70
2018-01-28T22:24:57.787Z,22.70
2018-01-28T22:27:26.306Z,22.70
2018-01-28T22:29:53.892Z,22.70
2018-01-28T22:32:21.490Z,22.70
2018-01-28T22:34:49.099Z,22.70
2018-01-28T22:37:16.655Z,22.70
2018-01-28T22:39:44.254Z,22.70
2018-01-28T22:42:11.815Z,22.70
2018-01-28T22:44:40.894Z,22.70
2018-01-28T22:47:08.512Z,22.70
2018-01-28T22:49:36.066Z,22.70
2018-01-28T22:52:03.625Z,22.70
2018-01-28T22:54:31.230Z,22.70
2018-01-28T22:56:58.804Z,22.70
2018-01-28T22:59:26.404Z,22.70
2018-01-28T23:01:53.982Z,22.70
2018-01-28T23:04:21.548Z,22.70
2018-01-28T23:06:49.130Z,22.70
2018-01-28T23:09:16.743Z,22.70
2018-01-28T23:11:44.325Z,22.70
2018-01-28T23:14:11.879Z,22.70
2018-01-28T23:16:39.549Z,22.70
2018-01-28T23:19:07.106Z,22.70
2018-01-28T23:21:34.756Z,22.70
2018-01-28T23:24:02.386Z,22.70
2018-01-28T23:26:30.606Z,22.70
2018-01-28T23:28:58.289Z,22.70
2018-01-28T23:31:25.906Z,22.70
2018-01-28T23:33:54.252Z,22.70
2018-01-28T23:36:21.801Z,22.70
2018-01-28T23:38:49.384Z,22.70
2018-01-28T23:41:17.005Z,22.70
2018-01-28T23:43:44.550Z,22.70
2018-01-28T23:46:12.248Z,22.70
2018-01-28T23:48:39.892Z,22.70
2018-01-28T23:51:07.508Z,22.70
2018-01-28T23:53:35.087Z,22.70
2018-01-28T23:56:02.734Z,22.70
2018-01-28T23:58:30.575Z,22.70
